04II weather

Turkey Run Airport
New Haven, Indiana, United States

Public forecast

Using degrees Fahrenheit for public forecast. Weather courtesy of forecast.io.

Closest aviation weather report (METAR) to Turkey Run Airport

Closest report is De Kalb County Airport, 11.1 nm (20.5 km) NNW. Retrieved 2019/12/15 23:35 UTC (0 seconds ago):

KGWB 152335Z AUTO 00000KT 10SM BKN110 M02/M06 A3014 RMK AO2

Closest aviation forecast (TAF) to Turkey Run Airport

Closest forecast is Fort Wayne International Airport, 12.9 nm (23.9 km) SW. Retrieved 2019/12/15 18:33 UTC (5 hours ago):

TAF KFWA 151730Z 1518/1618 25008KT P6SM OVC028 FM160500 VRB03KT 3SM -SN OVC040 FM160600 VRB03KT 1 1/2SM -SN OVC009 FM160800 VRB03KT 2SM -SN OVC006 FM161200 05006KT P6SM OVC008 FM161500 05007KT P6SM OVC022